Time;durP1;ratioP1;P1;durP2;ratioP2;P2;SDS_P1;SDS_P2;PMS_P1;PMS_P2;Temp;Humidity;BMP_temperature;BMP_pressure;BME280_temperature;BME280_humidity;BME280_pressure;Samples;Min_cycle;Max_cycle;Signal;HPM_P1;HPM_P2
2022/02/13 00:05:56;;;;;;;174.00;69.73;;;;;;;-5.63;73.01;100365.95;4393006;78;21098;-82
2022/02/13 00:12:06;;;;;;;194.17;76.60;;;;;;;-5.59;73.92;100355.11;4333279;80;21038;-81
2022/02/13 00:18:07;;;;;;;210.87;82.53;;;;;;;-5.67;73.70;100359.48;4349363;80;21351;-82
2022/02/13 00:24:08;;;;;;;198.43;77.43;;;;;;;-5.75;73.68;100354.00;4329267;80;21075;-82
2022/02/13 00:30:13;;;;;;;182.60;72.47;;;;;;;-5.77;73.68;100352.60;4291522;80;21058;-81
2022/02/13 00:36:13;;;;;;;172.27;71.33;;;;;;;-5.83;73.91;100354.92;4330242;80;21613;-81
2022/02/13 00:42:16;;;;;;;182.40;72.93;;;;;;;-5.92;74.08;100345.13;4329697;80;21041;-82
2022/02/13 00:48:17;;;;;;;178.63;70.77;;;;;;;-6.00;73.89;100343.36;4329245;80;21014;-82
2022/02/13 00:54:18;;;;;;;182.17;72.07;;;;;;;-5.99;74.78;100332.98;4323959;80;21630;-82
2022/02/13 01:00:20;;;;;;;193.53;73.13;;;;;;;-6.00;74.86;100331.36;4320835;80;21538;-82
2022/02/13 01:06:21;;;;;;;183.17;71.83;;;;;;;-5.97;74.48;100321.05;4353461;79;21545;-82
2022/02/13 01:12:22;;;;;;;182.27;70.57;;;;;;;-6.04;74.69;100312.87;4233734;82;21054;-82
2022/02/13 01:18:24;;;;;;;207.30;76.90;;;;;;;-6.19;74.85;100313.89;4249013;82;21030;-81
2022/02/13 01:24:26;;;;;;;187.67;71.47;;;;;;;-6.30;74.67;100305.39;4255163;82;21067;-81
2022/02/13 01:30:27;;;;;;;189.03;75.13;;;;;;;-6.38;75.15;100303.08;4243056;84;20997;-82
2022/02/13 01:36:29;;;;;;;207.70;77.90;;;;;;;-6.38;75.21;100295.91;4190492;83;21011;-82
2022/02/13 01:42:30;;;;;;;165.53;64.90;;;;;;;-6.40;74.98;100290.54;4236135;83;21054;-82
2022/02/13 01:48:32;;;;;;;174.17;66.63;;;;;;;-6.38;74.95;100285.77;4274292;83;21029;-81
2022/02/13 01:54:34;;;;;;;165.43;66.70;;;;;;;-6.37;75.96;100266.09;4266688;83;21095;-82
2022/02/13 02:00:35;;;;;;;174.37;68.07;;;;;;;-6.34;75.98;100258.95;4254966;83;21031;-82
2022/02/13 02:06:37;;;;;;;160.60;66.20;;;;;;;-6.27;76.43;100250.30;4258340;81;21512;-82
2022/02/13 02:12:39;;;;;;;167.27;65.63;;;;;;;-6.37;75.71;100250.11;4341167;81;21142;-82
2022/02/13 02:18:40;;;;;;;164.70;64.23;;;;;;;-6.41;75.98;100239.09;4329564;80;21024;-82
2022/02/13 02:24:41;;;;;;;151.20;60.87;;;;;;;-6.45;76.68;100242.47;4316308;81;21027;-83
2022/02/13 02:30:43;;;;;;;174.57;69.03;;;;;;;-6.33;75.55;100226.75;4348827;80;21035;-82
2022/02/13 02:36:44;;;;;;;169.60;67.97;;;;;;;-6.47;75.74;100217.39;4336173;81;21039;-81
2022/02/13 02:42:47;;;;;;;174.70;68.20;;;;;;;-6.51;76.49;100225.55;4355533;80;21042;-83
2022/02/13 02:48:49;;;;;;;182.53;70.13;;;;;;;-6.60;76.51;100218.46;4350138;81;21534;-81
2022/02/13 02:54:50;;;;;;;173.23;69.00;;;;;;;-6.54;76.75;100212.70;4354001;80;21070;-81
2022/02/13 03:00:52;;;;;;;174.17;67.63;;;;;;;-6.63;76.64;100196.30;4401814;80;20971;-81
2022/02/13 03:06:53;;;;;;;182.33;71.93;;;;;;;-6.76;76.74;100195.20;4414417;80;21640;-84
2022/02/13 03:12:55;;;;;;;184.53;71.67;;;;;;;-6.80;76.66;100201.23;4409536;80;21057;-81
2022/02/13 03:18:57;;;;;;;173.07;67.90;;;;;;;-6.89;76.88;100184.80;4398242;80;20982;-80
2022/02/13 03:24:59;;;;;;;196.27;82.23;;;;;;;-6.92;76.51;100184.47;4439573;80;21557;-81
2022/02/13 03:31:01;;;;;;;184.40;75.37;;;;;;;-7.13;76.83;100173.89;4432379;80;21029;-81
2022/02/13 03:37:04;;;;;;;189.10;74.33;;;;;;;-7.15;77.00;100173.81;4423758;80;20982;-81
2022/02/13 03:43:06;;;;;;;188.70;72.83;;;;;;;-7.12;77.25;100172.84;4320186;78;31288;-81
2022/02/13 03:49:07;;;;;;;191.17;74.50;;;;;;;-7.11;77.47;100169.13;4240409;83;21148;-81
2022/02/13 03:55:11;;;;;;;162.67;65.13;;;;;;;-7.15;77.61;100173.30;4248478;82;21473;-81
2022/02/13 04:01:12;;;;;;;169.17;67.20;;;;;;;-7.16;77.80;100166.37;4218293;84;21077;-81
2022/02/13 04:07:13;;;;;;;144.67;55.87;;;;;;;-7.10;77.84;100164.62;4240878;83;21080;-81
2022/02/13 04:13:15;;;;;;;151.83;64.57;;;;;;;-7.19;76.88;100158.86;4252972;83;21559;-81
2022/02/13 04:19:16;;;;;;;160.83;65.60;;;;;;;-7.21;77.72;100146.30;4255853;83;21086;-81
2022/02/13 04:25:18;;;;;;;157.70;64.63;;;;;;;-7.25;77.62;100141.67;4258339;83;21052;-81
2022/02/13 04:31:19;;;;;;;150.53;60.17;;;;;;;-7.31;77.65;100146.59;4253701;83;21558;-81
2022/02/13 04:37:22;;;;;;;141.77;57.43;;;;;;;-7.37;77.99;100131.02;4257112;83;20981;-81
2022/02/13 04:43:23;;;;;;;135.97;55.97;;;;;;;-7.42;77.95;100119.47;4124373;82;35932;-82
2022/02/13 04:49:25;;;;;;;135.20;53.87;;;;;;;-7.48;77.80;100117.20;4154528;84;21068;-83
2022/02/13 04:55:26;;;;;;;144.83;55.93;;;;;;;-7.43;78.48;100111.19;4155978;84;21105;-82
2022/02/13 05:01:28;;;;;;;138.50;55.90;;;;;;;-7.41;78.49;100108.60;4155181;84;21050;-81
2022/02/13 05:07:30;;;;;;;147.10;57.03;;;;;;;-7.41;78.54;100103.80;4163790;83;21323;-81
2022/02/13 05:13:31;;;;;;;129.97;53.73;;;;;;;-7.38;78.17;100103.33;4188987;83;41748;-81
2022/02/13 05:19:32;;;;;;;154.03;57.60;;;;;;;-7.39;79.04;100103.05;4209417;83;21035;-80
2022/02/13 05:25:34;;;;;;;137.53;55.13;;;;;;;-7.37;78.76;100091.13;4279849;82;21030;-81
2022/02/13 05:31:35;;;;;;;134.57;53.50;;;;;;;-7.45;78.64;100084.00;4274824;82;21905;-81
2022/02/13 05:37:40;;;;;;;127.20;51.57;;;;;;;-7.59;78.20;100078.12;4258217;82;21089;-81
2022/02/13 05:43:42;;;;;;;127.20;50.43;;;;;;;-7.64;78.78;100082.53;4310116;81;21034;-80
2022/02/13 05:49:43;;;;;;;121.97;50.03;;;;;;;-7.66;78.62;100070.80;4328713;81;21104;-80
2022/02/13 05:55:44;;;;;;;130.70;50.03;;;;;;;-7.68;79.02;100064.07;4321806;81;21085;-81
2022/02/13 06:01:46;;;;;;;129.13;51.00;;;;;;;-7.62;79.35;100070.61;4328170;81;21206;-80
2022/02/13 06:07:48;;;;;;;131.83;51.03;;;;;;;-7.67;78.86;100058.52;4321845;81;21065;-80
2022/02/13 06:13:49;;;;;;;111.63;47.77;;;;;;;-7.70;78.94;100048.89;4344879;81;21434;-80
2022/02/13 06:19:50;;;;;;;124.97;47.43;;;;;;;-7.78;78.81;100046.58;4299376;80;38736;-80
2022/02/13 06:25:52;;;;;;;136.63;51.77;;;;;;;-7.69;79.70;100038.02;4251154;82;21011;-80
2022/02/13 06:31:53;;;;;;;129.17;51.10;;;;;;;-7.40;80.56;100025.61;4416545;78;36699;-80
2022/02/13 06:37:54;;;;;;;138.63;55.60;;;;;;;-7.16;80.41;100030.67;4415182;79;21065;-80
2022/02/13 06:43:56;;;;;;;133.93;54.90;;;;;;;-7.02;80.79;100020.03;4417662;78;21359;-81
2022/02/13 06:49:57;;;;;;;133.40;54.70;;;;;;;-6.95;80.49;100014.55;4426577;79;21565;-80
2022/02/13 06:55:58;;;;;;;138.40;56.57;;;;;;;-6.84;80.72;100012.37;4415830;79;21044;-81
2022/02/13 07:02:00;;;;;;;138.33;56.37;;;;;;;-6.66;80.53;99998.88;4413109;79;21948;-79
2022/02/13 07:08:01;;;;;;;138.30;56.13;;;;;;;-6.51;81.19;99991.14;4317226;79;21038;-81
2022/02/13 07:14:02;;;;;;;138.03;54.30;;;;;;;-6.38;81.06;99993.51;4390615;79;21086;-82
2022/02/13 07:20:07;;;;;;;134.27;54.10;;;;;;;-6.11;81.68;99983.83;4290641;81;21052;-81
2022/02/13 07:26:08;;;;;;;134.43;53.90;;;;;;;-5.83;81.09;99972.23;4345593;80;21011;-84
2022/02/13 07:32:10;;;;;;;135.87;54.37;;;;;;;-5.37;81.74;99976.57;4345643;80;20998;-81
2022/02/13 07:38:11;;;;;;;127.73;52.53;;;;;;;-4.74;82.30;99968.49;4342015;80;21043;-81
2022/02/13 07:44:13;;;;;;;147.37;57.20;;;;;;;-4.04;82.58;99966.44;4400423;80;21014;-83
2022/02/13 07:50:14;;;;;;;129.77;52.47;;;;;;;-3.30;82.21;99968.73;4399676;80;21526;-82
2022/02/13 07:56:16;;;;;;;134.07;54.93;;;;;;;-2.37;82.67;99950.75;4378567;80;21519;-82
2022/02/13 08:02:17;;;;;;;119.17;53.90;;;;;;;-1.62;81.45;99959.55;4392907;79;21557;-82
2022/02/13 08:08:18;;;;;;;123.73;54.47;;;;;;;-0.98;81.14;99968.98;4399954;78;21530;-82
2022/02/13 08:14:19;;;;;;;119.90;52.10;;;;;;;-0.40;80.57;99968.11;4286464;81;21032;-82
2022/02/13 08:20:22;;;;;;;127.95;52.70;;;;;;;-0.06;80.48;99951.42;4343078;80;21019;-82
2022/02/13 08:26:23;;;;;;;118.00;53.13;;;;;;;0.36;79.79;99943.23;4345978;80;20975;-82
2022/02/13 08:32:24;;;;;;;110.08;49.95;;;;;;;0.72;80.24;99938.48;4364217;80;21058;-82
2022/02/13 08:38:26;;;;;;;116.08;50.85;;;;;;;1.25;79.90;99923.77;4360360;80;21598;-82
2022/02/13 08:44:27;;;;;;;120.10;52.65;;;;;;;1.97;79.89;99921.05;4360764;80;21532;-82
2022/02/13 08:50:29;;;;;;;104.83;48.33;;;;;;;2.60;78.82;99912.56;4358464;80;21027;-83
2022/02/13 08:56:31;;;;;;;118.87;52.93;;;;;;;3.31;78.70;99917.83;4349875;80;21022;-83
2022/02/13 09:02:33;;;;;;;113.55;50.83;;;;;;;3.89;78.30;99911.30;4351899;80;22156;-84
2022/02/13 09:08:41;;;;;;;92.82;45.67;;;;;;;4.48;76.91;99911.36;4364557;80;21086;-85
2022/02/13 09:14:42;;;;;;;82.12;42.73;;;;;;;5.32;76.97;99903.23;4350269;80;21090;-85
2022/02/13 09:21:09;;;;;;;80.35;40.45;;;;;;;6.06;76.48;99906.57;4232161;82;21029;-85
2022/02/13 09:27:23;;;;;;;75.97;38.23;;;;;;;7.05;76.04;99894.55;4208561;82;21505;-85
2022/02/13 09:33:24;;;;;;;66.72;36.30;;;;;;;7.51;74.97;99894.39;4200390;84;21640;-85
2022/02/13 09:39:26;;;;;;;61.08;36.17;;;;;;;8.07;74.36;99884.72;4191236;83;21029;-86
2022/02/13 09:45:30;;;;;;;57.03;30.70;;;;;;;8.58;73.28;99885.52;4229764;82;22175;-87
2022/02/13 09:51:34;;;;;;;42.90;24.75;;;;;;;9.68;72.58;99877.41;4213457;83;21053;-87
2022/02/13 10:04:17;;;;;;;24.12;13.55;;;;;;;10.49;70.10;99870.25;4194035;83;21053;-88
2022/02/13 10:10:43;;;;;;;23.42;12.58;;;;;;;9.69;67.68;99870.23;4287104;81;21041;-88
2022/02/13 10:16:52;;;;;;;21.20;11.25;;;;;;;9.69;64.64;99858.48;4317047;81;21032;-89
2022/02/13 10:23:14;;;;;;;19.57;12.43;;;;;;;10.25;64.89;99854.02;4311187;81;21108;-90
2022/02/13 10:29:15;;;;;;;20.00;12.28;;;;;;;10.77;65.02;99848.27;4318315;81;21030;-90
2022/02/13 10:35:16;;;;;;;18.95;11.57;;;;;;;11.30;63.12;99831.64;4300907;80;20949;-89
2022/02/13 10:41:28;;;;;;;22.27;11.95;;;;;;;11.48;61.44;99832.82;4323944;80;20992;-89
2022/02/13 10:47:30;;;;;;;17.73;11.22;;;;;;;11.36;60.46;99826.08;4290022;81;21274;-89
2022/02/13 10:53:31;;;;;;;23.38;15.30;;;;;;;11.08;59.80;99815.31;4335915;80;21084;-89
2022/02/13 10:59:34;;;;;;;18.35;9.35;;;;;;;10.92;50.36;99806.34;4329849;80;21007;-90
2022/02/13 11:05:38;;;;;;;10.20;5.33;;;;;;;10.89;56.61;99790.63;4334722;80;21027;-89
2022/02/13 11:11:41;;;;;;;11.40;7.37;;;;;;;10.87;54.43;99776.48;4239704;82;22317;-88
2022/02/13 11:17:44;;;;;;;9.50;6.87;;;;;;;10.68;49.54;99764.92;4328506;80;21031;-89
2022/02/13 11:23:53;;;;;;;9.25;5.20;;;;;;;10.86;45.36;99757.91;4226071;82;21087;-90
2022/02/13 11:30:01;;;;;;;9.80;5.03;;;;;;;10.45;45.20;99753.61;4259023;82;79761;-90
2022/02/13 11:36:07;;;;;;;10.32;5.20;;;;;;;10.62;45.73;99751.29;4235458;83;21590;-89
2022/02/13 11:42:19;;;;;;;9.65;5.05;;;;;;;10.44;44.08;99732.31;4239344;83;21105;-89
2022/02/13 11:48:45;;;;;;;8.13;4.60;;;;;;;10.25;37.77;99728.70;4326961;79;97352;-89
2022/02/13 11:54:52;;;;;;;10.60;5.00;;;;;;;9.98;44.79;99722.72;4297201;81;21661;-90
2022/02/13 12:00:54;;;;;;;9.13;5.15;;;;;;;9.98;38.83;99704.94;4355584;80;21839;-88
2022/02/13 12:06:56;;;;;;;8.23;4.78;;;;;;;9.80;43.49;99697.69;4225874;81;22085;-89
2022/02/13 12:13:17;;;;;;;8.60;4.70;;;;;;;9.51;40.15;99693.99;4315700;81;21018;-88
2022/02/13 12:19:32;;;;;;;9.28;4.83;;;;;;;9.48;40.56;99684.56;4301808;81;21049;-89
2022/02/13 12:25:36;;;;;;;8.13;4.80;;;;;;;9.40;43.32;99672.42;4289946;82;21527;-88
2022/02/13 12:31:38;;;;;;;8.25;4.80;;;;;;;9.33;43.01;99667.56;4302215;81;21036;-89
2022/02/13 12:37:47;;;;;;;10.90;5.17;;;;;;;9.24;42.49;99663.39;4317875;82;20990;-89
2022/02/13 12:43:50;;;;;;;9.95;4.92;;;;;;;9.30;40.94;99655.97;4294551;80;21011;-88
2022/02/13 12:49:52;;;;;;;17.65;6.05;;;;;;;9.18;41.73;99657.41;4284099;82;21978;-89
2022/02/13 12:56:00;;;;;;;17.52;7.50;;;;;;;9.16;42.01;99646.03;4264005;82;21000;-89
2022/02/13 13:02:25;;;;;;;9.43;6.05;;;;;;;9.06;42.74;99642.45;4292682;81;21047;-89
2022/02/13 13:08:45;;;;;;;14.75;7.03;;;;;;;9.04;43.01;99631.08;4223360;82;21006;-87
2022/02/13 13:14:58;;;;;;;11.95;6.20;;;;;;;9.03;42.60;99631.42;4254977;83;21542;-87
2022/02/13 13:21:01;;;;;;;16.42;6.92;;;;;;;8.99;41.72;99620.40;4217162;84;21004;-89
2022/02/13 13:27:06;;;;;;;12.63;6.58;;;;;;;8.78;41.88;99608.11;4225242;84;21019;-89
2022/02/13 13:33:08;;;;;;;14.98;7.75;;;;;;;8.46;42.31;99603.67;4292046;82;21960;-91
2022/02/13 13:39:32;;;;;;;19.27;7.70;;;;;;;8.29;42.88;99597.94;4264463;81;21582;-88
2022/02/13 13:45:36;;;;;;;31.45;9.08;;;;;;;8.24;42.59;99593.30;4285348;81;82787;-89
2022/02/13 13:51:37;;;;;;;17.35;7.00;;;;;;;8.06;42.46;99586.48;4276247;81;21471;-88
2022/02/13 13:57:39;;;;;;;13.75;7.05;;;;;;;7.78;41.71;99581.73;4278014;81;21066;-88
2022/02/13 14:03:40;;;;;;;17.57;6.50;;;;;;;7.52;42.34;99581.30;4276831;81;21284;-88
2022/02/13 14:09:41;;;;;;;18.50;8.58;;;;;;;7.43;42.41;99569.73;4255219;81;21607;-88
2022/02/13 14:15:44;;;;;;;16.62;6.60;;;;;;;7.43;42.39;99564.28;4220851;82;21626;-88
2022/02/13 14:21:46;;;;;;;16.20;6.45;;;;;;;7.45;42.54;99555.20;4209669;82;20991;-88
2022/02/13 14:27:48;;;;;;;14.15;6.65;;;;;;;7.38;42.44;99542.70;4215082;81;21735;-88
2022/02/13 14:33:50;;;;;;;15.63;6.03;;;;;;;7.37;42.43;99537.60;4291058;81;21584;-89
2022/02/13 14:39:54;;;;;;;13.08;6.40;;;;;;;7.28;42.42;99533.61;4370171;80;21054;-89
2022/02/13 14:45:55;;;;;;;13.22;7.25;;;;;;;7.15;42.39;99523.06;4351161;80;21001;-89
2022/02/13 14:51:57;;;;;;;11.88;6.50;;;;;;;7.11;40.81;99518.09;4387702;80;21571;-89
2022/02/13 14:57:58;;;;;;;11.78;5.92;;;;;;;7.04;41.35;99515.92;4371790;80;21077;-89
2022/02/13 15:04:00;;;;;;;15.70;7.08;;;;;;;6.88;41.99;99516.90;4388455;78;20997;-89
2022/02/13 15:10:04;;;;;;;19.60;7.17;;;;;;;6.63;42.08;99507.09;4393757;79;21016;-88
2022/02/13 15:16:06;;;;;;;20.97;7.65;;;;;;;6.37;42.23;99504.07;4354919;80;21003;-88
2022/02/13 15:22:07;;;;;;;15.63;7.47;;;;;;;6.19;42.34;99497.22;4412257;79;20999;-89
2022/02/13 15:28:08;;;;;;;19.67;6.45;;;;;;;5.89;42.44;99498.98;4391466;79;21050;-89
2022/02/13 15:34:10;;;;;;;16.70;7.22;;;;;;;5.62;42.66;99498.13;4385025;78;21627;-88
2022/02/13 15:40:13;;;;;;;16.65;7.20;;;;;;;5.37;42.74;99495.80;4397597;79;21043;-88
2022/02/13 15:46:14;;;;;;;18.02;7.45;;;;;;;5.03;42.79;99497.33;4400932;79;21028;-88
2022/02/13 15:52:17;;;;;;;25.48;8.85;;;;;;;4.64;43.31;99486.24;4348958;80;21023;-88
2022/02/13 15:58:18;;;;;;;25.82;9.53;;;;;;;4.28;43.58;99487.75;4393879;79;21146;-87
2022/02/13 16:04:19;;;;;;;33.42;10.15;;;;;;;3.77;44.18;99489.15;4339677;80;21549;-88
2022/02/13 16:10:21;;;;;;;39.55;12.70;;;;;;;3.39;44.70;99490.84;4305037;80;21484;-88
2022/02/13 16:16:22;;;;;;;33.55;13.03;;;;;;;2.98;45.35;99494.72;4241540;82;21014;-88
2022/02/13 16:22:25;;;;;;;38.17;14.60;;;;;;;2.52;45.68;99494.34;4239054;82;21039;-88
2022/02/13 16:28:26;;;;;;;30.62;13.28;;;;;;;2.18;46.65;99487.39;4239056;82;21032;-88
2022/02/13 16:34:28;;;;;;;41.98;15.58;;;;;;;1.94;47.03;99492.86;4239825;82;22148;-87
2022/02/13 16:40:29;;;;;;;43.52;18.52;;;;;;;1.68;47.19;99496.69;4238935;82;22164;-88
2022/02/13 16:46:30;;;;;;;55.33;19.92;;;;;;;1.36;47.91;99499.01;4241283;82;21125;-87
2022/02/13 16:52:32;;;;;;;123.50;44.65;;;;;;;1.18;48.64;99494.55;4241592;82;22382;-87
2022/02/13 16:58:35;;;;;;;108.12;40.40;;;;;;;0.89;48.51;99494.05;4244014;82;21051;-86
2022/02/13 17:04:36;;;;;;;118.35;43.00;;;;;;;0.63;49.60;99494.29;4242617;82;20987;-87
2022/02/13 17:10:37;;;;;;;95.45;35.05;;;;;;;0.20;50.41;99496.16;4283274;80;21508;-87
2022/02/13 17:16:38;;;;;;;105.72;40.80;;;;;;;-0.19;50.73;99493.27;4334658;80;21422;-87
2022/02/13 17:22:39;;;;;;;107.55;40.12;;;;;;;-0.41;50.66;99497.09;4408867;79;21048;-87
2022/02/13 17:28:41;;;;;;;168.20;70.90;;;;;;;-0.71;52.29;99501.56;4391015;79;21059;-87
2022/02/13 17:34:42;;;;;;;118.00;45.90;;;;;;;-0.90;52.32;99467.14;4377976;79;21521;-87
2022/02/13 17:40:44;;;;;;;102.95;39.10;;;;;;;-0.90;52.32;99467.14;4398317;79;21033;-87
2022/02/13 17:46:45;;;;;;;112.63;39.80;;;;;;;-0.96;53.35;99482.27;4407928;79;21008;-87
2022/02/13 17:52:55;;;;;;;110.13;43.30;;;;;;;-1.18;52.64;99486.02;4392549;79;21043;-87
2022/02/13 17:58:56;;;;;;;152.57;54.07;;;;;;;-1.57;53.63;99485.63;4396703;79;21041;-87
2022/02/13 18:04:57;;;;;;;161.33;64.10;;;;;;;-1.77;54.37;99483.70;4389215;79;21060;-87
2022/02/13 18:11:00;;;;;;;287.53;110.00;;;;;;;-1.81;54.18;99482.65;4383931;79;21064;-87
2022/02/13 18:17:01;;;;;;;291.53;106.93;;;;;;;-1.82;54.28;99479.72;4429253;79;22183;-87
2022/02/13 18:23:05;;;;;;;156.67;57.47;;;;;;;-1.85;54.86;99468.20;4387626;79;20996;-88
2022/02/13 18:29:06;;;;;;;148.33;59.03;;;;;;;-2.00;55.37;99478.52;4390693;79;21037;-87
2022/02/13 18:35:08;;;;;;;195.13;73.53;;;;;;;-2.12;56.25;99477.28;4387872;79;20992;-87
2022/02/13 18:41:10;;;;;;;118.93;42.80;;;;;;;-2.20;57.00;99468.50;4399681;79;21040;-87
2022/02/13 18:47:11;;;;;;;134.20;49.40;;;;;;;-2.36;58.11;99463.79;4389735;79;20974;-89
2022/02/13 18:53:14;;;;;;;161.67;55.40;;;;;;;-2.50;57.38;99468.71;4387940;78;21620;-87
2022/02/13 18:59:16;;;;;;;161.07;55.73;;;;;;;-2.64;57.63;99462.38;4270109;77;10000000;-87
2022/02/13 19:05:17;;;;;;;164.80;61.97;;;;;;;-2.75;57.92;99464.31;4401403;79;22041;-88
2022/02/13 19:11:21;;;;;;;142.00;51.70;;;;;;;-2.83;57.78;99464.08;4420473;79;21059;-89
2022/02/13 19:17:23;;;;;;;126.93;48.87;;;;;;;-2.91;58.96;99463.35;4448317;79;21536;-88
2022/02/13 19:23:24;;;;;;;135.93;46.53;;;;;;;-2.97;59.21;99456.39;4422488;79;21065;-88
2022/02/13 19:29:25;;;;;;;164.07;61.73;;;;;;;-3.03;59.44;99457.50;4475182;79;21046;-90
2022/02/13 19:35:27;;;;;;;127.30;47.80;;;;;;;-3.13;58.81;99447.63;4453291;79;21000;-88
2022/02/13 19:41:30;;;;;;;128.67;48.87;;;;;;;-3.16;60.85;99446.84;4426336;79;21638;-89
2022/02/13 19:47:33;;;;;;;125.40;46.30;;;;;;;-3.15;61.37;99445.79;4465642;79;21567;-88
2022/02/13 19:53:34;;;;;;;126.57;46.90;;;;;;;-3.17;62.11;99443.10;4458003;79;21109;-89
2022/02/13 19:59:37;;;;;;;137.30;52.23;;;;;;;-3.47;60.13;99441.34;4415364;79;21079;-88
2022/02/13 20:05:40;;;;;;;207.40;70.40;;;;;;;-3.82;59.96;99447.59;4406391;79;21004;-88
2022/02/13 20:11:42;;;;;;;165.73;59.73;;;;;;;-3.92;61.12;99448.16;4412365;79;21091;-88
2022/02/13 20:17:43;;;;;;;264.13;96.77;;;;;;;-3.85;60.77;99441.45;4388443;79;21051;-88
2022/02/13 20:23:47;;;;;;;241.27;80.63;;;;;;;-3.87;59.86;99434.22;4382077;79;21482;-87
2022/02/13 20:29:49;;;;;;;160.20;63.40;;;;;;;-3.84;62.31;99428.36;4325591;80;21072;-87
2022/02/13 20:35:50;;;;;;;148.70;57.33;;;;;;;-3.93;61.13;99421.94;4349402;80;21470;-86
2022/02/13 20:42:26;;;;;;;156.97;60.57;;;;;;;-4.14;61.85;99414.22;4350206;80;21006;-86
2022/02/13 20:48:30;;;;;;;155.63;59.77;;;;;;;-4.32;61.85;99414.23;4394197;79;21016;-86
2022/02/13 21:01:17;;;;;;;179.42;69.05;;;;;;;-4.59;62.84;99404.89;4379733;79;21001;-85
2022/02/13 21:07:19;;;;;;;176.97;72.20;;;;;;;-4.59;63.66;99399.02;4401010;79;21056;-85
2022/02/13 21:13:21;;;;;;;208.23;83.03;;;;;;;-4.53;63.68;99383.77;4386057;79;21593;-85
2022/02/13 21:19:23;;;;;;;141.20;54.47;;;;;;;-4.61;62.82;99375.77;4396666;79;21504;-85
2022/02/13 21:25:24;;;;;;;133.70;48.83;;;;;;;-4.73;64.33;99375.77;4267264;79;10000187;-85
2022/02/13 21:31:25;;;;;;;138.33;56.73;;;;;;;-4.76;64.60;99373.07;4393297;79;21438;-85
2022/02/13 21:37:27;;;;;;;150.93;60.57;;;;;;;-4.71;65.07;99374.42;4408032;78;21522;-84
2022/02/13 21:43:29;;;;;;;179.33;70.97;;;;;;;-4.89;63.48;99368.28;4397224;79;21036;-85
2022/02/13 21:49:30;;;;;;;134.50;53.63;;;;;;;-5.05;63.80;99358.64;4405291;79;21061;-84
2022/02/13 21:55:32;;;;;;;178.07;69.47;;;;;;;-5.11;65.11;99348.50;4405278;79;21005;-85
2022/02/13 22:01:35;;;;;;;143.10;51.87;;;;;;;-5.14;64.87;99355.70;4395844;79;20980;-84
2022/02/13 22:07:37;;;;;;;143.57;52.67;;;;;;;-5.27;64.00;99349.53;4391671;79;21072;-84
2022/02/13 22:13:38;;;;;;;179.20;67.50;;;;;;;-5.37;65.47;99336.70;4382832;79;21072;-84
2022/02/13 22:19:45;;;;;;;195.73;69.73;;;;;;;-5.39;64.84;99336.16;4402015;79;20993;-83
2022/02/13 22:25:48;;;;;;;189.43;72.33;;;;;;;-5.50;64.96;99328.67;4384934;79;21530;-83
2022/02/13 22:31:50;;;;;;;193.10;68.63;;;;;;;-5.51;65.21;99321.71;4422222;79;21952;-83
2022/02/13 22:37:51;;;;;;;158.37;59.77;;;;;;;-5.51;65.07;99323.05;4396557;79;21016;-83
2022/02/13 22:43:53;;;;;;;201.77;75.13;;;;;;;-5.67;66.16;99318.72;4386306;79;21526;-83
2022/02/13 22:49:59;;;;;;;219.20;81.30;;;;;;;-5.68;65.43;99316.32;4368200;79;21071;-83
2022/02/13 22:56:00;;;;;;;214.67;80.57;;;;;;;-5.74;66.33;99315.52;4378626;79;21768;-83
2022/02/13 23:02:02;;;;;;;178.10;64.57;;;;;;;-5.74;66.26;99304.84;4400604;79;21501;-83
2022/02/13 23:14:25;;;;;;;182.70;65.03;;;;;;;-6.02;65.78;99297.31;4408293;79;21046;-82
2022/02/13 23:20:40;;;;;;;175.40;63.87;;;;;;;-6.00;66.16;99281.87;4405827;79;21498;-82
2022/02/13 23:26:46;;;;;;;165.57;57.13;;;;;;;-6.02;67.11;99292.50;4332687;81;21127;-82
2022/02/13 23:32:54;;;;;;;176.03;65.17;;;;;;;-5.86;68.39;99281.66;4320795;80;21009;-82
2022/02/13 23:38:56;;;;;;;182.10;64.93;;;;;;;-5.97;67.21;99277.87;4373005;79;20997;-82
2022/02/13 23:44:57;;;;;;;205.80;72.43;;;;;;;-6.03;67.11;99265.06;4409188;79;21583;-82
2022/02/13 23:50:58;;;;;;;209.87;78.80;;;;;;;-6.01;66.74;99245.59;4379039;79;21093;-82
2022/02/13 23:57:03;;;;;;;118.30;42.03;;;;;;;-5.94;67.01;99236.84;4390543;79;21054;-82
